Tiempo atmosférico en la estación meteorológica de Santervás de la Vega, Villapún, Palencia (985 m.)



Fecha
DESCASC
Temp. máxima en grados centígrados (hora)
DESCASC
Temp. mínima en grados centígrados (hora)
DESCASC
Temp. media en grados centígrados
DESCASC
Racha de viento máxima en m/sg (hora)
DESCASC
Velocidad máxima media en intervalos de 10 minutos(hora)
DESCASC
Precipitaciones diarias en mm
DESCASC
Precipitaciones de 00:00 a 06:00 en mm
DESCASC
Precipitaciones de 06:00 a 12:00 en mm
DESCASC
Precipitaciones de 12:00 a 18:00 en mm
DESCASC
Precipitaciones de 18:00 a 24:00 en mm
DESCASC
23-06-2019 24.1 (13:20) 11.4 (05:00) 17.8 11.39 (13:30) 7.22 (13:30) 0 0 0 0 0
22-06-2019 25.4 (19:20) 8 (06:20) 16.7 8.89 (16:20) 5.28 (17:10) 0 0 0 0 0
21-06-2019 19.1 (17:50) 7.1 (05:30) 13.1 10.83 (00:40) 7.22 (00:30) 1.8 1.8 0 0 0
20-06-2019 21.5 (15:50) 9.5 (00:00) 15.5 11.67 (19:00) 7.78 (19:00) 24.4 0 0 0 24.4
19-06-2019 21.9 (17:30) 12.8 (00:00) 17.3 12.5 (15:40) 6.94 (19:10) 0 0 0 0 0
18-06-2019 24.9 (15:40) 8.9 (00:00) 16.9 17.78 (16:20) 10.28 (19:30) 0 0 0 0 0
17-06-2019 26.2 (15:50) 10.5 (00:00) 18.4 13.33 (13:50) 6.11 (15:10) 0 0 0 0 0
16-06-2019 25 (17:50) 5.8 (00:00) 15.4 15 (15:30) 4.44 (18:10) 0 0 0 0 0
15-06-2019 20.5 (19:00) 6.6 (00:00) 13.5 7.22 (15:50) 3.89 (16:20) 0 0 0 0 0
14-06-2019 21.4 (17:20) 4.6 (00:00) 13 11.39 (18:50) 6.67 (20:40) 0 0 0 0 0
13-06-2019 20.9 (18:40) 4.5 (00:00) 12.7 11.11 (16:20) 5.83 (20:00) 0 0 0 0 0
12-06-2019 17.4 (19:00) 0.9 (00:00) 9.1 9.17 (15:00) 4.44 (18:20) 0 0 0 0 0
11-06-2019 14.2 (18:00) 1.7 (00:00) 7.9 12.78 (15:30) 7.22 (12:40) 0 0 0 0 0
10-06-2019 17.4 (17:50) 4.7 (00:00) 11 10 (19:20) 6.67 (19:20) 0 0 0 0 0
09-06-2019 19.5 (17:10) 6.1 (00:00) 12.8 8.33 (19:20) 5.56 (19:20) 0.6 0 0 0 0.6
08-06-2019 21 (18:30) 3.6 (00:00) 12.3 8.61 (21:00) 5.28 (21:00) 0 0 0 0 0
07-06-2019 15.5 (18:10) 4.3 (00:00) 9.9 13.61 (09:30) 8.06 (01:10) 0 0 0 0 0
06-06-2019 18.1 (16:20) 2.3 (00:00) 10.2 16.67 (19:30) 10.56 (19:50) 9 0 0 0 9
05-06-2019 16.3 (16:50) 7.1 (00:00) 11.7 15.56 (14:40) 7.5 (15:20) 2.8 2.8 0 0 0
04-06-2019 20.8 (15:40) 8.9 (00:00) 14.8 12.5 (16:50) 8.61 (16:50) 0 0 0 0 0
03-06-2019 26.7 (17:40) 11.6 (00:00) 19.2 11.39 (17:50) 7.5 (19:30) 0 0 0 0 0
02-06-2019 28 (17:00) 14.1 (00:00) 21.1 16.67 (14:00) 7.22 (18:50) 0 0 0 0 0
01-06-2019 29.9 (17:10) 13.8 (00:00) 21.8 9.17 (15:20) 5.28 (15:20) 0 0 0 0 0
31-05-2019 28.3 (18:30) 10.6 (00:00) 19.4 7.22 (15:40) 3.89 (05:00) 0 0 0 0 0
30-05-2019 26.5 (18:20) 7.1 (00:00) 16.8 9.17 (20:20) 6.11 (20:30) 0 0 0 0 0
29-05-2019 21.5 (17:40) 0.7 (00:00) 11.1 7.78 (19:30) 5.28 (20:50) 0 0 0 0 0
28-05-2019 18.6 (15:30) 1.9 (00:00) 10.3 10.83 (15:50) 5 (15:50) 0 0 0 0 0
27-05-2019 21.8 (17:20) 4.9 (00:00) 13.3 9.44 (15:40) 5.28 (18:50) 0 0 0 0 0
26-05-2019 23.3 (17:20) 2.4 (00:00) 12.8 7.5 (17:50) 5.28 (19:40) 0 0 0 0 0

Gráficas

Temp. máximas Temp. mínimas Temp. medias Precipitaciones Rachas de viento máximas Velocidades máximas media en intervalos de 10 minutos

Datos horarios

Fecha y hora oficial Temperatura (ºC) Velocidad del viento (km/h) Dirección del viento Racha (km/h) Dirección de racha Precipitación (mm) Presión (hPa) Tendencia (hPa) Humedad (%)
2019-06-24 23:00:00 -- -- -- -- -- -- -- -- --
2019-06-24 22:00:00 -- -- -- -- -- -- -- -- --
2019-06-24 21:00:00 -- -- -- -- -- -- -- -- --
2019-06-24 20:00:00 14.4 15 Noroeste 31 Noroeste 0.4 -- -- 89
2019-06-24 19:00:00 16.9 10 Noroeste 24 Norte 0 -- -- 73
2019-06-24 18:00:00 17.6 14 Noroeste 29 Noroeste 0 -- -- 71
2019-06-24 17:00:00 19 16 Noroeste 31 Noroeste 0 -- -- 61
2019-06-24 16:00:00 19.8 14 Noroeste 32 Noroeste 0 -- -- 59
2019-06-24 15:00:00 19.3 16 Noroeste 32 Noroeste 0 -- -- 64
2019-06-24 14:00:00 18.7 17 Noroeste 28 Oeste 0 -- -- 71
2019-06-24 13:00:00 20.6 11 Noroeste 21 Oeste 0 -- -- 65
2019-06-24 12:00:00 21.4 4 Sudoeste 15 Oeste 0 -- -- 60
2019-06-24 11:00:00 19.5 7 Noroeste 14 Noroeste 0 -- -- 64
2019-06-24 10:00:00 17.7 0 Calma 6 Norte 0 -- -- 60
2019-06-24 09:00:00 15.4 0 Calma 6 Sudeste 0 -- -- 79
2019-06-24 08:00:00 13.5 5 Noroeste 8 Noroeste 0 -- -- 80
2019-06-24 07:00:00 13.2 4 Nordeste 8 Este 0 -- -- 82
2019-06-24 06:00:00 13.5 5 Nordeste 9 Nordeste 0 -- -- 78
2019-06-24 05:00:00 13.6 5 Nordeste 9 Nordeste 0 -- -- 74
2019-06-24 04:00:00 13.2 3 Norte 10 Nordeste 0 -- -- 79
2019-06-24 03:00:00 12.4 5 Norte 13 Nordeste 0 -- -- 79
2019-06-24 02:00:00 12.1 4 Nordeste 11 Nordeste 0 -- -- 81
2019-06-24 01:00:00 14.3 6 Nordeste 10 Nordeste 0 -- -- 72
2019-06-24 00:00:00 14.9 6 Nordeste 10 Nordeste 0 -- -- 72
2019-06-23 23:00:00 16.2 7 Nordeste 9 Nordeste 0 -- -- 67
2019-06-23 22:00:00 18.1 0 Calma 9 Este 0 -- -- 65
2019-06-23 21:00:00 19.6 3 Este 9 Oeste 0 -- -- 54
2019-06-23 20:00:00 19.6 3 Oeste 17 Noroeste 0 -- -- 51
2019-06-23 19:00:00 20.1 6 Noroeste 14 Oeste 0 -- -- 47
2019-06-23 18:00:00 21.5 8 Oeste 20 Oeste 0 -- -- 39
2019-06-23 17:00:00 22.5 13 Oeste 27 Oeste 0 -- -- 34
2019-06-23 16:00:00 22 13 Oeste 26 Oeste 0 -- -- 38
2019-06-23 15:00:00 20.2 12 Oeste 33 Oeste 0 -- -- 43
2019-06-23 14:00:00 22.2 21 Oeste 41 Sudoeste 0 -- -- 33
2019-06-23 13:00:00 23.5 18 Oeste 32 Sudoeste 0 -- -- 34
2019-06-23 12:00:00 21.3 15 Sudoeste 25 Sudoeste 0 -- -- 42
2019-06-23 11:00:00 19.6 8 Sudoeste 15 Sur 0 -- -- 49
2019-06-23 10:00:00 17.6 8 Sur 12 Sur 0 -- -- 57
2019-06-23 09:00:00 16 2 Sur 9 Noroeste 0 -- -- 67
2019-06-23 08:00:00 14.4 5 Noroeste 16 Noroeste 0 -- -- 70
2019-06-23 07:00:00 12.6 6 Noroeste 9 Noroeste 0 -- -- 82
2019-06-23 06:00:00 13 7 Noroeste 13 Noroeste 0 -- -- 78
2019-06-23 05:00:00 11.4 5 Oeste 5 Noroeste 0 -- -- 89
2019-06-23 04:00:00 11.9 3 Nordeste 6 Nordeste 0 -- -- 84
2019-06-23 03:00:00 13 4 Nordeste 6 Este 0 -- -- 80
2019-06-23 02:00:00 13.6 2 Nordeste 6 Nordeste 0 -- -- 79
2019-06-23 01:00:00 15.4 3 Este 5 Este 0 -- -- 73
2019-06-23 00:00:00 15.3 3 Este 6 Nordeste 0 -- -- 76
2019-06-22 23:00:00 16.4 3 Nordeste 5 Este 0 -- -- 68
2019-06-22 22:00:00 20.2 3 Este 13 Oeste 0 -- -- 54
2019-06-22 21:00:00 22.5 4 Este 9 Este 0 -- -- 51
2019-06-22 20:00:00 24.4 3 Sur 15 Oeste 0 -- -- 42
2019-06-22 19:00:00 24.7 5 Oeste 22 Oeste 0 -- -- 39
2019-06-22 18:00:00 24.8 6 Oeste 31 Oeste 0 -- -- 36
2019-06-22 17:00:00 24.7 14 Noroeste 32 Oeste 0 -- -- 35
2019-06-22 16:00:00 24.1 13 Noroeste 28 Oeste 0 -- -- 37
2019-06-22 15:00:00 23.4 10 Oeste 25 Oeste 0 -- -- 38
2019-06-22 14:00:00 22.8 8 Oeste 22 Sur 0 -- -- 42
2019-06-22 13:00:00 20.8 9 Sur 18 Sudoeste 0 -- -- 45
2019-06-22 12:00:00 18.8 9 Sur 14 Sudeste 0 -- -- 54
2019-06-22 11:00:00 17.2 7 Sudeste 13 Sudeste 0 -- -- 65
2019-06-22 10:00:00 15.1 6 Sudeste 12 Este 0 -- -- 71
2019-06-22 09:00:00 12.7 9 Este 13 Este 0 -- -- 76
2019-06-22 08:00:00 10 9 Este 14 Nordeste 0 -- -- 88
2019-06-22 07:00:00 8.3 12 Nordeste 14 Nordeste 0 -- -- 93
2019-06-22 06:00:00 8.2 9 Este 14 Nordeste 0 -- -- 95
2019-06-22 05:00:00 8.6 10 Nordeste 14 Nordeste 0 -- -- 96
2019-06-22 04:00:00 8.9 9 Este 13 Este 0 -- -- 97
2019-06-22 03:00:00 9.3 8 Este 14 Este 0 -- -- 96
2019-06-22 02:00:00 10 8 Este 17 Este 0 -- -- 94
2019-06-22 01:00:00 10.8 10 Este 21 Este 0 -- -- 92
2019-06-22 00:00:00 11.8 13 Sudeste 22 Sudeste 0 -- -- 87
2019-06-21 23:00:00 13 12 Sudeste 22 Sudeste 0 -- -- 79
2019-06-21 22:00:00 14.7 12 Sudeste 20 Este 0 -- -- 73
2019-06-21 21:00:00 17.4 15 Sudeste 21 Sudeste 0 -- -- 61
2019-06-21 20:00:00 18 12 Sudeste 30 Sudeste 0 -- -- 58
2019-06-21 19:00:00 18.9 12 Sudeste 21 Sur 0 -- -- 56
2019-06-21 18:00:00 18.8 14 Sudeste 22 Este 0 -- -- 57
2019-06-21 17:00:00 17.9 11 Sudeste 21 Sur 0 -- -- 62
2019-06-21 16:00:00 17.5 11 Este 17 Este 0 -- -- 61
2019-06-21 15:00:00 16.8 8 Este 19 Sur 0 -- -- 62
2019-06-21 14:00:00 16.3 12 Sudeste 22 Sudeste 0 -- -- 65
2019-06-21 13:00:00 15.8 13 Sudeste 22 Sudeste 0 -- -- 72
2019-06-21 12:00:00 14.5 11 Sudeste 19 Sudeste 0 -- -- 79
2019-06-21 11:00:00 12.8 11 Sudeste 17 Sudeste 0 -- -- 86
2019-06-21 10:00:00 11.6 8 Sudeste 15 Sur 0 -- -- 90
2019-06-21 09:00:00 11.5 9 Sudeste 14 Sur 0 -- -- 93
2019-06-21 08:00:00 10.1 0 Calma 6 Nordeste 0 -- -- 100
2019-06-21 07:00:00 7.1 0 Calma 10 Norte 0 -- -- 98
2019-06-21 06:00:00 7.3 0 Calma -- -- 0 -- -- 99
2019-06-21 05:00:00 7.7 0 Calma -- -- 0 -- -- 97
2019-06-21 04:00:00 9.5 0 Calma 11 Este 0 -- -- 95
2019-06-21 03:00:00 10.3 6 Este 19 Nordeste 0 -- -- 96
2019-06-21 02:00:00 10.9 10 Nordeste 19 Este 0 -- -- 96
2019-06-21 01:00:00 10.9 11 Sudeste 39 Sudeste 1.8 -- -- 96
2019-06-21 00:00:00 11 15 Sudeste 21 Sudeste 6.4 -- -- 97
2019-06-20 23:00:00 11.3 3 Sudeste 17 Nordeste 7.2 -- -- 96
2019-06-20 22:00:00 11.7 9 Nordeste 22 Este 6.4 -- -- 95
2019-06-20 21:00:00 11.7 16 Este 34 Nordeste 0.6 -- -- 91
2019-06-20 20:00:00 11.9 21 Nordeste 37 Norte 3.8 -- -- 90
2019-06-20 19:00:00 16 28 Sudeste 42 Sudeste 0 -- -- 65
2019-06-20 18:00:00 19 26 Este 37 Este 0 -- -- 49
2019-06-20 17:00:00 19.7 12 Sudeste 29 Sur 0 -- -- 48
2019-06-20 16:00:00 21.1 15 Sudeste 28 Sudeste 0 -- -- 49
2019-06-20 15:00:00 19.5 9 Sudeste 22 Sudeste 0 -- -- 56
2019-06-20 14:00:00 18.8 9 Sudeste 25 Sudeste 0 -- -- 58
2019-06-20 13:00:00 18.2 9 Sudeste 21 Sudeste 0 -- -- 59
2019-06-20 12:00:00 17.2 12 Sudeste 24 Sudeste 0 -- -- 65
2019-06-20 11:00:00 16.4 14 Sudeste 23 Sudeste 0 -- -- 70
2019-06-20 10:00:00 15.7 12 Este 21 Este 0 -- -- 74
2019-06-20 09:00:00 13.4 14 Este 23 Este 0 -- -- 82
2019-06-20 08:00:00 11.4 8 Este 14 Este 0 -- -- 94
2019-06-20 07:00:00 10.6 11 Este 18 Este 0 -- -- 95
2019-06-20 06:00:00 10.8 12 Este 19 Este 0 -- -- 96
2019-06-20 05:00:00 -- -- -- -- -- 0 -- -- --
2019-06-20 04:00:00 9.9 8 Este 13 Este 0 -- -- 95
2019-06-20 03:00:00 9.9 8 Este 12 Este 0 -- -- 95
2019-06-20 02:00:00 10.5 7 Este 10 Este 0 -- -- 91
2019-06-20 01:00:00 11.3 8 Este 11 Nordeste 0 -- -- 87
2019-06-20 00:00:00 12.8 6 Noroeste 10 Noroeste 0 -- -- 73
2019-06-19 23:00:00 15.4 6 Noroeste 14 Noroeste 0 -- -- 65
2019-06-19 22:00:00 17.5 12 Noroeste 31 Noroeste 0 -- -- 58
2019-06-19 21:00:00 19.7 19 Oeste 33 Oeste 0 -- -- 48
2019-06-19 20:00:00 21.5 18 Oeste 34 Oeste 0 -- -- 44
2019-06-19 19:00:00 21.6 23 Oeste 35 Oeste 0 -- -- 45
2019-06-19 18:00:00 21.6 20 Oeste 34 Oeste 0 -- -- 47
2019-06-19 17:00:00 20.9 20 Oeste 34 Oeste 0 -- -- 42
2019-06-19 16:00:00 21.6 20 Oeste 45 Oeste 0 -- -- 46
2019-06-19 15:00:00 20.2 20 Oeste 37 Oeste 0 -- -- 49
2019-06-19 14:00:00 20 22 Oeste 35 Oeste 0 -- -- 55
2019-06-19 13:00:00 19.1 21 Oeste 36 Oeste 0 -- -- 56
2019-06-19 12:00:00 16.5 15 Noroeste 28 Oeste 0 -- -- 71
2019-06-19 11:00:00 16 19 Oeste 28 Noroeste 0 -- -- 72
2019-06-19 10:00:00 14.6 16 Oeste 25 Oeste 0 -- -- 81
2019-06-19 09:00:00 13.9 19 Oeste 30 Oeste 0 -- -- 85
2019-06-19 08:00:00 13.1 13 Oeste 22 Oeste 0 -- -- 90
2019-06-19 07:00:00 13.2 14 Oeste 27 Oeste 0 -- -- 90
2019-06-19 06:00:00 13.4 14 Oeste 30 Oeste 0 -- -- 88
2019-06-19 05:00:00 -- -- -- -- -- 0 -- -- --
2019-06-19 04:00:00 13.5 21 Oeste 33 Oeste 0 -- -- 88
2019-06-19 03:00:00 13.5 14 Oeste 27 Oeste 0 -- -- 86
2019-06-19 02:00:00 14.4 13 Noroeste 35 Oeste 0 -- -- 82
2019-06-19 01:00:00 15.1 17 Oeste 32 Oeste 0 -- -- 77
2019-06-19 00:00:00 15 12 Oeste 29 Oeste 0 -- -- 76
2019-06-18 23:00:00 15.3 15 Oeste 36 Noroeste 0 -- -- 78
2019-06-18 22:00:00 17.1 18 Noroeste 41 Noroeste 0 -- -- 64
2019-06-18 21:00:00 18.9 29 Oeste 46 Oeste 0 -- -- 55
2019-06-18 20:00:00 20 31 Oeste 55 Oeste 0 -- -- 49
2019-06-18 19:00:00 22.1 29 Oeste 54 Oeste 0 -- -- 44
2019-06-18 18:00:00 21.8 32 Oeste 51 Oeste 0 -- -- 47
2019-06-18 17:00:00 23.7 36 Oeste 64 Oeste 0 -- -- 39
2019-06-18 16:00:00 23.7 32 Oeste 53 Oeste 0 -- -- 34
2019-06-18 15:00:00 24.4 27 Oeste 53 Oeste 0 -- -- 26
2019-06-18 14:00:00 23.8 28 Oeste 51 Oeste 0 -- -- 25
2019-06-18 13:00:00 22.9 24 Oeste 49 Sudoeste 0 -- -- 21
2019-06-18 12:00:00 21.6 24 Oeste 41 Oeste 0 -- -- 21
2019-06-18 11:00:00 20 24 Oeste 40 Oeste 0 -- -- 36
2019-06-18 10:00:00 19.1 21 Oeste 32 Oeste 0 -- -- 40
2019-06-18 09:00:00 17.4 9 Sudoeste 17 Sudoeste 0 -- -- 45
2019-06-18 08:00:00 11.3 5 Este 8 Este 0 -- -- 62
2019-06-18 07:00:00 8.9 4 Sur 9 Sur 0 -- -- 66
2019-06-18 06:00:00 10.5 6 Nordeste 8 Nordeste 0 -- -- 59
2019-06-18 05:00:00 -- -- -- -- -- 0 -- -- --
2019-06-18 04:00:00 14.3 8 Nordeste 15 Nordeste 0 -- -- 46
2019-06-18 03:00:00 14.7 10 Nordeste 14 Nordeste 0 -- -- 48
2019-06-18 02:00:00 15.7 5 Norte 13 Noroeste 0 -- -- 43
2019-06-18 01:00:00 17.3 9 Noroeste 15 Noroeste 0 -- -- 38
2019-06-18 00:00:00 18.8 13 Noroeste 32 Noroeste 0 -- -- 36
2019-06-17 23:00:00 19 8 Noroeste 28 Norte 0 -- -- 36
2019-06-17 22:00:00 19.3 3 Noroeste 18 Oeste 0 -- -- 33
2019-06-17 21:00:00 20.9 8 Norte 28 Noroeste 0 -- -- 28
2019-06-17 20:00:00 21.6 14 Noroeste 25 Noroeste 0 -- -- 27
2019-06-17 19:00:00 24.2 13 Noroeste 31 Oeste 0 -- -- 26
2019-06-17 18:00:00 24.9 17 Oeste 32 Oeste 0 -- -- 24
2019-06-17 17:00:00 25.7 19 Oeste 36 Oeste 0 -- -- 29
2019-06-17 16:00:00 26 22 Oeste 43 Oeste 0 -- -- 26
2019-06-17 15:00:00 25.1 17 Oeste 38 Oeste 0 -- -- 26
2019-06-17 14:00:00 24.9 18 Oeste 48 Oeste 0 -- -- 27
2019-06-17 13:00:00 23.5 18 Oeste 30 Oeste 0 -- -- 33
2019-06-17 12:00:00 22.8 18 Oeste 28 Oeste 0 -- -- 35
2019-06-17 11:00:00 20.4 8 Sur 14 Sur 0 -- -- 51
2019-06-17 10:00:00 18.3 6 Sudeste 13 Sudeste 0 -- -- 62
2019-06-17 09:00:00 16.2 7 Sudeste 12 Sudeste 0 -- -- 72
2019-06-17 08:00:00 13.2 5 Nordeste 12 Nordeste 0 -- -- 79
2019-06-17 07:00:00 10.6 11 Nordeste 13 Nordeste 0 -- -- 85
2019-06-17 06:00:00 11 11 Nordeste 13 Nordeste 0 -- -- 83
2019-06-17 05:00:00 11.7 11 Nordeste 12 Nordeste 0 -- -- 81
2019-06-17 04:00:00 12.3 10 Este 13 Nordeste 0 -- -- 79
2019-06-17 03:00:00 12.9 9 Nordeste 12 Nordeste 0 -- -- 79
2019-06-17 02:00:00 13.2 9 Este 14 Este 0 -- -- 79
2019-06-17 01:00:00 13.3 7 Nordeste 14 Nordeste 0 -- -- 79
2019-06-17 00:00:00 14.3 10 Este 16 Este 0 -- -- 75
2019-06-16 23:00:00 15.5 5 Nordeste 8 Nordeste 0 -- -- 46
2019-06-16 22:00:00 16.5 5 Noroeste 9 Noroeste 0 -- -- 47
2019-06-16 21:00:00 21.3 3 Noroeste 9 Noroeste 0 -- -- 35
2019-06-16 20:00:00 23.6 5 Noroeste 17 Noroeste 0 -- -- 27
2019-06-16 19:00:00 24 7 Noroeste 26 Oeste 0 -- -- 26
2019-06-16 18:00:00 24.8 12 Oeste 24 Oeste 0 -- -- 24
2019-06-16 17:00:00 24.8 13 Oeste 23 Oeste 0 -- -- 25
2019-06-16 16:00:00 24.5 13 Sudoeste 54 Oeste 0 -- -- 27
2019-06-16 15:00:00 23.6 15 Sur 24 Sudeste 0 -- -- 31
2019-06-16 14:00:00 21.9 8 Sur 24 Sur 0 -- -- 34
2019-06-16 13:00:00 20.9 5 Sudoeste 23 Sur 0 -- -- 37
2019-06-16 12:00:00 19.6 6 Sur 18 Sudeste 0 -- -- 44
2019-06-16 11:00:00 17.4 8 Sudeste 19 Sudeste 0 -- -- 52
2019-06-16 10:00:00 15.4 11 Sur 19 Sur 0 -- -- 59
2019-06-16 09:00:00 12.6 10 Este 14 Este 0 -- -- 71
2019-06-16 08:00:00 9.5 10 Nordeste 13 Nordeste 0 -- -- 84
2019-06-16 07:00:00 6.1 11 Este 14 Nordeste 0 -- -- 93
2019-06-16 06:00:00 6.4 12 Este 14 Nordeste 0 -- -- 91
2019-06-16 05:00:00 6.5 12 Este 15 Este 0 -- -- 92
2019-06-16 04:00:00 6.8 10 Este 14 Este 0 -- -- 93
2019-06-16 03:00:00 7.6 11 Este 15 Este 0 -- -- 90
2019-06-16 02:00:00 8.1 11 Este 17 Este 0 -- -- 89
2019-06-16 01:00:00 8.9 11 Este 17 Este 0 -- -- 86
2019-06-16 00:00:00 9.8 11 Este 18 Sudeste 0 -- -- 82
2019-06-15 23:00:00 11 11 Este 19 Este 0 -- -- 76
2019-06-15 22:00:00 14.5 3 Norte 13 Este 0 -- -- 48
2019-06-15 21:00:00 19.3 4 Norte 15 Noroeste 0 -- -- 32
2019-06-15 20:00:00 20.4 7 Noroeste 19 Noroeste 0 -- -- 32
2019-06-15 19:00:00 20.5 8 Oeste 26 Oeste 0 -- -- 32
2019-06-15 18:00:00 19.9 12 Oeste 25 Oeste 0 -- -- 33
2019-06-15 17:00:00 19.2 6 Nordeste 24 Oeste 0 -- -- 34
2019-06-15 16:00:00 18.7 12 Noroeste 26 Noroeste 0 -- -- 37
2019-06-15 15:00:00 18.1 6 Oeste 20 Oeste 0 -- -- 42
2019-06-15 14:00:00 16.1 8 Sudeste 17 Sudeste 0 -- -- 46
2019-06-15 13:00:00 15.1 7 Noroeste 18 Sudoeste 0 -- -- 48
2019-06-15 12:00:00 14.7 5 Este 14 Sur 0 -- -- 55
2019-06-15 11:00:00 13.8 9 Sur 19 Sudeste 0 -- -- 60
2019-06-15 10:00:00 12.1 8 Sudeste 17 Sudeste 0 -- -- 66
2019-06-15 09:00:00 10.3 2 Este 13 Este 0 -- -- 74
2019-06-15 08:00:00 9.5 5 Este 9 Este 0 -- -- 78
2019-06-15 07:00:00 8.2 0 Calma -- -- 0 -- -- 86
2019-06-15 06:00:00 7.9 0 Calma -- -- 0 -- -- 86
2019-06-15 05:00:00 7.5 0 Calma -- -- 0 -- -- 86
2019-06-15 04:00:00 7 0 Calma -- -- 0 -- -- 87
2019-06-15 03:00:00 7.1 0 Calma 7 Este 0 -- -- 87
2019-06-15 02:00:00 7.7 5 Este 13 Este 0 -- -- 86
2019-06-15 01:00:00 8.9 8 Este 17 Este 0 -- -- 82
2019-06-15 00:00:00 10.3 10 Este 18 Nordeste 0 -- -- 78
2019-06-14 23:00:00 12.4 5 Noroeste 35 Oeste 0 -- -- 64
2019-06-14 22:00:00 15.4 18 Oeste 33 Oeste 0 -- -- 41
2019-06-14 21:00:00 17.4 19 Oeste 36 Oeste 0 -- -- 36
2019-06-14 20:00:00 19.2 21 Oeste 39 Oeste 0 -- -- 35
2019-06-14 19:00:00 20.6 21 Oeste 41 Oeste 0 -- -- 33
2019-06-14 18:00:00 20.8 20 Oeste 36 Oeste 0 -- -- 28
2019-06-14 17:00:00 21 15 Oeste 35 Oeste 0 -- -- 27
2019-06-14 16:00:00 20.3 17 Oeste 31 Oeste 0 -- -- 34
2019-06-14 15:00:00 20.1 12 Sudoeste 27 Sudoeste 0 -- -- 36
2019-06-14 14:00:00 19.3 15 Oeste 30 Oeste 0 -- -- 40
2019-06-14 13:00:00 17.4 13 Oeste 26 Oeste 0 -- -- 42
2019-06-14 12:00:00 17.8 9 Sur 16 Sudeste 0 -- -- 45
2019-06-14 11:00:00 15.8 5 Oeste 11 Oeste 0 -- -- 54
2019-06-14 10:00:00 12.7 4 Sudeste 10 Este 0 -- -- 68
2019-06-14 09:00:00 9.4 8 Este 14 Este 0 -- -- 81
2019-06-14 08:00:00 7.4 10 Nordeste 15 Nordeste 0 -- -- 89
2019-06-14 07:00:00 5.1 10 Este 12 Este 0 -- -- 95
2019-06-14 06:00:00 4.7 9 Este 11 Este 0 -- -- 93
2019-06-14 05:00:00 5.2 8 Este 14 Este 0 -- -- 92
2019-06-14 04:00:00 6 7 Este 17 Sudeste 0 -- -- 92
2019-06-14 03:00:00 6.3 9 Este 13 Este 0 -- -- 93
2019-06-14 02:00:00 6.7 9 Este 17 Este 0 -- -- 91
2019-06-14 01:00:00 7.6 11 Este 21 Sudeste 0 -- -- 88
2019-06-14 00:00:00 8.8 7 Este 18 Este 0 -- -- 78
2019-06-13 23:00:00 10.4 7 Noroeste 10 Noroeste 0 -- -- 52
2019-06-13 22:00:00 15.1 8 Noroeste 24 Oeste 0 -- -- 37
2019-06-13 21:00:00 18.7 17 Noroeste 40 Oeste 0 -- -- 28
2019-06-13 20:00:00 20.1 21 Oeste 36 Noroeste 0 -- -- 26
2019-06-13 19:00:00 20.9 16 Oeste 33 Noroeste 0 -- -- 24
2019-06-13 18:00:00 20.5 17 Oeste 34 Oeste 0 -- -- 28
2019-06-13 17:00:00 20.3 19 Oeste 40 Oeste 0 -- -- 29
2019-06-13 16:00:00 19.7 18 Oeste 37 Oeste 0 -- -- 29
2019-06-13 15:00:00 19 20 Oeste 39 Oeste 0 -- -- 33
2019-06-13 14:00:00 18.2 16 Sudoeste 28 Sudoeste 0 -- -- 34
2019-06-13 13:00:00 17.2 13 Sur 25 Sur 0 -- -- 43
2019-06-13 12:00:00 15.5 7 Sur 17 Sur 0 -- -- 53
2019-06-13 11:00:00 13.5 8 Sudeste 22 Este 0 -- -- 59
2019-06-13 10:00:00 11.7 12 Sudeste 21 Este 0 -- -- 66
2019-06-13 09:00:00 9.6 12 Este 21 Este 0 -- -- 77
2019-06-13 08:00:00 7.1 13 Este 19 Este 0 -- -- 86
2019-06-13 07:00:00 4.9 12 Este 17 Este 0 -- -- 93
2019-06-13 06:00:00 4.6 12 Este 18 Este 0 -- -- 92
2019-06-13 05:00:00 5.3 12 Este 19 Este 0 -- -- 89
2019-06-13 04:00:00 5.3 10 Este 23 Este 0 -- -- 89
2019-06-13 03:00:00 6 12 Este 19 Este 0 -- -- 87
2019-06-13 02:00:00 6.2 8 Este 14 Este 0 -- -- 86
2019-06-13 01:00:00 6.6 10 Este 19 Este 0 -- -- 86
2019-06-13 00:00:00 7.5 12 Este 22 Este 0 -- -- 83
2019-06-12 23:00:00 8.8 11 Este 22 Este 0 -- -- 77
2019-06-12 22:00:00 11.1 2 Sudeste 6 Sudeste 0 -- -- 46
2019-06-12 21:00:00 15.3 5 Sur 12 Sur 0 -- -- 36
2019-06-12 20:00:00 16.7 3 Nordeste 22 Oeste 0 -- -- 28
2019-06-12 19:00:00 17.4 8 Oeste 26 Oeste 0 -- -- 27
2019-06-12 18:00:00 17.2 10 Oeste 27 Noroeste 0 -- -- 28
2019-06-12 17:00:00 16.5 12 Oeste 27 Noroeste 0 -- -- 31
2019-06-12 16:00:00 16.1 15 Oeste 25 Oeste 0 -- -- 31
2019-06-12 15:00:00 15 14 Oeste 33 Noroeste 0 -- -- 31
2019-06-12 14:00:00 14.1 8 Noroeste 25 Oeste 0 -- -- 40
2019-06-12 13:00:00 12.5 8 Noroeste 27 Noroeste 0 -- -- 44
2019-06-12 12:00:00 11.5 11 Oeste 31 Oeste 0 -- -- 49
2019-06-12 11:00:00 10.1 9 Noroeste 24 Noroeste 0 -- -- 52
2019-06-12 10:00:00 8.7 12 Noroeste 27 Noroeste 0 -- -- 57
2019-06-12 09:00:00 7.1 10 Noroeste 18 Noroeste 0 -- -- 62
2019-06-12 08:00:00 3.5 6 Noroeste 11 Noroeste 0 -- -- 78
2019-06-12 07:00:00 1.3 6 Noroeste 13 Noroeste 0 -- -- 85
2019-06-12 06:00:00 1.3 5 Noroeste 9 Noroeste 0 -- -- 86
2019-06-12 05:00:00 2.3 5 Noroeste 10 Noroeste 0 -- -- 80
2019-06-12 04:00:00 3.6 4 Norte 15 Norte 0 -- -- 74
2019-06-12 03:00:00 4.6 6 Norte 19 Norte 0 -- -- 74
2019-06-12 02:00:00 5.5 8 Norte 27 Norte 0 -- -- 69
2019-06-12 01:00:00 5.2 6 Norte 18 Norte 0 -- -- 71
2019-06-12 00:00:00 5.3 5 Norte 12 Norte 0 -- -- 75
2019-06-11 23:00:00 6.4 6 Norte 18 Norte 0 -- -- 71
2019-06-11 22:00:00 8.2 10 Norte 20 Norte 0 -- -- 62
2019-06-11 21:00:00 10.7 11 Norte 27 Norte 0 -- -- 54
2019-06-11 20:00:00 12 13 Norte 34 Nordeste 0 -- -- 46
2019-06-11 19:00:00 13.3 15 Nordeste 31 Nordeste 0 -- -- 49
2019-06-11 18:00:00 14.2 14 Norte 36 Norte 0 -- -- 46
2019-06-11 17:00:00 14.1 17 Norte 35 Norte 0 -- -- 44
2019-06-11 16:00:00 13.6 26 Nordeste 46 Nordeste 0 -- -- 43
2019-06-11 15:00:00 13.5 22 Nordeste 44 Nordeste 0 -- -- 43
2019-06-11 14:00:00 13 19 Nordeste 45 Nordeste 0 -- -- 44
2019-06-11 13:00:00 12.5 24 Nordeste 45 Nordeste 0 -- -- 48
2019-06-11 12:00:00 11.3 22 Nordeste 44 Nordeste 0 -- -- 49
2019-06-11 11:00:00 10.3 17 Nordeste 36 Norte 0 -- -- 52
2019-06-11 10:00:00 9.3 13 Norte 33 Nordeste 0 -- -- 59
2019-06-11 09:00:00 7.9 13 Nordeste 23 Nordeste 0 -- -- 69
2019-06-11 08:00:00 5.6 5 Norte 11 Noroeste 0 -- -- 84
2019-06-11 07:00:00 3.3 6 Norte 10 Norte 0 -- -- 89
2019-06-11 06:00:00 1.7 5 Norte 8 Norte 0 -- -- 91
2019-06-11 05:00:00 3.1 4 Norte 7 Norte 0 -- -- 87
2019-06-11 04:00:00 5 3 Norte 8 Norte 0 -- -- 83
2019-06-11 03:00:00 6.7 0 Calma 9 Norte 0 -- -- 80
2019-06-11 02:00:00 7.9 5 Norte 10 Norte 0 -- -- 76
2019-06-11 01:00:00 8.6 0 Calma 8 Nordeste 0 -- -- 78
2019-06-11 00:00:00 8.9 4 Este 14 Nordeste 0 -- -- 84
2019-06-10 23:00:00 9.3 8 Este 21 Este 0 -- -- 81
2019-06-10 22:00:00 9.9 14 Este 25 Este 0 -- -- 78
2019-06-10 21:00:00 10.3 17 Este 29 Este 0 -- -- 75
2019-06-10 20:00:00 11.1 23 Este 36 Este 0 -- -- 72
2019-06-10 19:00:00 16.4 3 Sudeste 17 Oeste 0 -- -- 40
2019-06-10 18:00:00 17.4 9 Sudoeste 30 Oeste 0 -- -- 40
2019-06-10 17:00:00 16.9 14 Oeste 27 Oeste 0 -- -- 45
2019-06-10 16:00:00 15.6 10 Oeste 24 Oeste 0 -- -- 47
2019-06-10 15:00:00 15.1 8 Sudoeste 22 Oeste 0 -- -- 49
2019-06-10 14:00:00 14.6 10 Noroeste 21 Noroeste 0 -- -- 51
2019-06-10 13:00:00 13.1 9 Oeste 23 Norte 0 -- -- 60
2019-06-10 12:00:00 11.7 6 Oeste 13 Noroeste 0 -- -- 64
2019-06-10 11:00:00 9.4 6 Oeste 13 Noroeste 0 -- -- 78
2019-06-10 10:00:00 8.3 0 Calma 9 Noroeste 0 -- -- 83
2019-06-10 09:00:00 7 0 Calma 8 Oeste 0 -- -- 91
2019-06-10 08:00:00 6.6 0 Calma 7 Este 0 -- -- 93
2019-06-10 07:00:00 6.4 4 Este 12 Este 0 -- -- 95
2019-06-10 06:00:00 6.2 6 Este 14 Este 0 -- -- 95
2019-06-10 05:00:00 6.5 4 Este 10 Este 0 -- -- 96
2019-06-10 04:00:00 6.6 2 Este 15 Sudeste 0 -- -- 98
2019-06-10 03:00:00 5.1 0 Calma -- -- 0 -- -- 97
2019-06-10 02:00:00 4.8 0 Calma -- -- 0 -- -- 95
2019-06-10 01:00:00 6.5 0 Calma 7 Nordeste 0 -- -- 94
2019-06-10 00:00:00 7.9 6 Nordeste 16 Este 0.2 -- -- 92
2019-06-09 23:00:00 9 11 Este 22 Este 0.2 -- -- 92
2019-06-09 22:00:00 10.7 11 Sudeste 27 Sudeste 0.2 -- -- 88
2019-06-09 21:00:00 13.1 10 Este 19 Este 0 -- -- 76
2019-06-09 20:00:00 14.3 10 Este 30 Este 0 -- -- 70
2019-06-09 19:00:00 15.8 10 Norte 25 Oeste 0 -- -- 57
2019-06-09 18:00:00 18.3 8 Noroeste 22 Oeste 0 -- -- 43
2019-06-09 17:00:00 19.4 9 Oeste 29 Noroeste 0 -- -- 39
2019-06-09 16:00:00 18.7 15 Noroeste 28 Noroeste 0 -- -- 43
2019-06-09 15:00:00 17.7 16 Noroeste 27 Oeste 0 -- -- 47
2019-06-09 14:00:00 17.7 11 Noroeste 26 Oeste 0 -- -- 49
2019-06-09 13:00:00 17.6 14 Oeste 24 Oeste 0 -- -- 45
2019-06-09 12:00:00 15.7 7 Noroeste 15 Oeste 0 -- -- 63
2019-06-09 11:00:00 14.2 6 Sudoeste 13 Oeste 0 -- -- 71
2019-06-09 10:00:00 12.6 3 Sudeste 12 Este 0 -- -- 79
2019-06-09 09:00:00 10.9 7 Este 11 Este 0 -- -- 86
2019-06-09 08:00:00 8.9 6 Este 10 Este 0 -- -- 92
2019-06-09 07:00:00 6.2 7 Nordeste 9 Este 0 -- -- 97
2019-06-09 06:00:00 6.3 8 Este 10 Este 0 -- -- 96
2019-06-09 05:00:00 7.1 8 Este 12 Este 0 -- -- 93
2019-06-09 04:00:00 8.4 8 Este 22 Este 0 -- -- 87
2019-06-09 03:00:00 9.3 10 Este 20 Este 0 -- -- 84
2019-06-09 02:00:00 10.4 9 Este 20 Este 0 -- -- 79
2019-06-09 01:00:00 10.3 10 Este 23 Este 0 -- -- 80
2019-06-09 00:00:00 10.9 17 Este 26 Este 0 -- -- 78
2019-06-08 23:00:00 11.5 9 Este 23 Este 0 -- -- 77
2019-06-08 22:00:00 12.9 9 Este 30 Este 0 -- -- 73
2019-06-08 21:00:00 15.9 19 Este 31 Este 0 -- -- 63
2019-06-08 20:00:00 19.8 6 Noroeste 17 Noroeste 0 -- -- 30
2019-06-08 19:00:00 20.6 8 Sudoeste 25 Sur 0 -- -- 28
2019-06-08 18:00:00 20.4 8 Sudeste 27 Sur 0 -- -- 30
2019-06-08 17:00:00 20.1 9 Oeste 27 Sur 0 -- -- 29
2019-06-08 16:00:00 19.2 13 Sur 23 Sur 0 -- -- 34
2019-06-08 15:00:00 18.2 14 Sur 29 Sudoeste 0 -- -- 37
2019-06-08 14:00:00 16.9 8 Sur 24 Sudeste 0 -- -- 42
2019-06-08 13:00:00 15.3 10 Sudeste 28 Sudeste 0 -- -- 46
2019-06-08 12:00:00 14 10 Sudeste 20 Sudeste 0 -- -- 54
2019-06-08 11:00:00 11.9 11 Sudeste 20 Este 0 -- -- 67
2019-06-08 10:00:00 10.1 12 Este 22 Este 0 -- -- 75
2019-06-08 09:00:00 7.7 13 Este 21 Este 0 -- -- 85
2019-06-08 08:00:00 6.3 9 Este 15 Este 0 -- -- 92
2019-06-08 07:00:00 3.9 8 Este 11 Este 0 -- -- 95
2019-06-08 06:00:00 3.9 8 Este 12 Nordeste 0 -- -- 95
2019-06-08 05:00:00 3.9 9 Nordeste 12 Nordeste 0 -- -- 95
2019-06-08 04:00:00 3.7 8 Nordeste 12 Nordeste 0 -- -- 93
2019-06-08 03:00:00 4.2 7 Este 9 Este 0 -- -- 93
2019-06-08 02:00:00 4.6 5 Este 12 Nordeste 0 -- -- 86
2019-06-08 01:00:00 6 5 Nordeste 13 Noroeste 0 -- -- 79
2019-06-08 00:00:00 6.7 8 Noroeste 15 Noroeste 0 -- -- 74
2019-06-07 23:00:00 7.7 7 Noroeste 12 Noroeste 0 -- -- 67
2019-06-07 22:00:00 10.3 10 Noroeste 21 Noroeste 0 -- -- 54
2019-06-07 21:00:00 13.2 12 Noroeste 25 Noroeste 0 -- -- 46
2019-06-07 20:00:00 14.6 14 Noroeste 26 Noroeste 0 -- -- 43
2019-06-07 19:00:00 14.9 15 Oeste 34 Noroeste 0 -- -- 39
2019-06-07 18:00:00 15.2 15 Noroeste 39 Oeste 0 -- -- 37
2019-06-07 17:00:00 14.5 20 Noroeste 42 Oeste 0 -- -- 40
2019-06-07 16:00:00 13.5 22 Noroeste 42 Oeste 0 -- -- 46
2019-06-07 15:00:00 13 29 Oeste 43 Noroeste 0 -- -- 50
2019-06-07 14:00:00 12.2 24 Oeste 44 Oeste 0 -- -- 50
2019-06-07 13:00:00 11.2 28 Oeste 45 Noroeste 0 -- -- 56
2019-06-07 12:00:00 10.3 25 Oeste 48 Noroeste 0 -- -- 60
2019-06-07 11:00:00 9.1 28 Noroeste 45 Oeste 0 -- -- 64
2019-06-07 10:00:00 7.2 25 Noroeste 49 Noroeste 0 -- -- 77
2019-06-07 09:00:00 6.3 27 Noroeste 45 Noroeste 0 -- -- 82
2019-06-07 08:00:00 5.2 22 Noroeste 39 Oeste 0 -- -- 89
2019-06-07 07:00:00 4.3 17 Noroeste 41 Oeste 0 -- -- 94
2019-06-07 06:00:00 5.2 23 Oeste 37 Oeste 0 -- -- 95
2019-06-07 05:00:00 5.5 22 Noroeste 38 Noroeste 0 -- -- 95
2019-06-07 04:00:00 5.2 24 Oeste 36 Noroeste 0 -- -- 95
2019-06-07 03:00:00 5.4 23 Oeste 39 Oeste 0 -- -- 95
2019-06-07 02:00:00 6 22 Noroeste 42 Oeste 0 -- -- 94
2019-06-07 01:00:00 6.6 26 Oeste 41 Oeste 0 -- -- 94
2019-06-07 00:00:00 7.1 28 Oeste 39 Oeste 0 -- -- 92
2019-06-06 23:00:00 7.6 22 Oeste 58 Noroeste 2.6 -- -- 95
2019-06-06 22:00:00 10.2 24 Noroeste 46 Noroeste 3.8 -- -- 94
2019-06-06 21:00:00 10.4 20 Oeste 46 Oeste 1.8 -- -- 92
2019-06-06 20:00:00 11.4 31 Oeste 60 Oeste 0.8 -- -- 83
2019-06-06 19:00:00 16.2 31 Oeste 48 Oeste 0 -- -- 44
2019-06-06 18:00:00 16.1 30 Oeste 51 Oeste 0 -- -- 42
2019-06-06 17:00:00 17.1 25 Sudoeste 47 Oeste 0 -- -- 37
2019-06-06 16:00:00 17.2 27 Sudoeste 49 Oeste 0 -- -- 38
2019-06-06 15:00:00 15.5 23 Sudoeste 40 Sudoeste 0 -- -- 41
2019-06-06 14:00:00 15.2 24 Oeste 40 Sudoeste 0 -- -- 40
2019-06-06 13:00:00 14 17 Oeste 36 Sudoeste 0 -- -- 45
2019-06-06 12:00:00 12.5 16 Oeste 34 Oeste 0 -- -- 49
2019-06-06 11:00:00 11.2 12 Oeste 26 Sudoeste 0 -- -- 56
2019-06-06 10:00:00 9 9 Sur 13 Sur 0 -- -- 74
2019-06-06 09:00:00 7 5 Sur 9 Sur 0 -- -- 86
2019-06-06 08:00:00 5.4 0 Calma -- -- 0 -- -- 94
2019-06-06 07:00:00 2.5 0 Calma -- -- 0 -- -- 96
2019-06-06 06:00:00 3.1 0 Calma -- -- 0 -- -- 96
2019-06-06 05:00:00 2.7 0 Calma -- -- 0 -- -- 95
2019-06-06 04:00:00 2.8 0 Calma -- -- 0 -- -- 93
2019-06-06 03:00:00 5 0 Calma 7 Sur 0 -- -- 88
2019-06-06 02:00:00 5.9 5 Sur 10 Sudeste 0 -- -- 88
2019-06-06 01:00:00 6.5 7 Sudeste 11 Este 0 -- -- 86
2019-06-06 00:00:00 7.3 6 Sudeste 13 Sudeste 0 -- -- 81
2019-06-05 23:00:00 8.4 7 Sudeste 19 Sudeste 0 -- -- 78
2019-06-05 22:00:00 10.4 5 Nordeste 21 Oeste 0 -- -- 68
2019-06-05 21:00:00 12 12 Noroeste 31 Noroeste 0 -- -- 48
2019-06-05 20:00:00 13.3 19 Noroeste 32 Oeste 0 -- -- 41
2019-06-05 19:00:00 15.2 19 Noroeste 36 Oeste 0 -- -- 34
2019-06-05 18:00:00 15 16 Noroeste 39 Noroeste 0 -- -- 36
2019-06-05 17:00:00 15.4 18 Noroeste 49 Oeste 0 -- -- 31
2019-06-05 16:00:00 15.4 21 Noroeste 41 Oeste 0 -- -- 38
2019-06-05 15:00:00 14.9 19 Noroeste 56 Oeste 0 -- -- 48
2019-06-05 14:00:00 14.4 18 Noroeste 32 Noroeste 0 -- -- 46
2019-06-05 13:00:00 13.4 15 Noroeste 43 Norte 0 -- -- 49
2019-06-05 12:00:00 11.5 12 Noroeste 27 Noroeste 0 -- -- 60
2019-06-05 11:00:00 11 14 Noroeste 25 Norte 0 -- -- 61
2019-06-05 10:00:00 9.4 10 Norte 16 Noroeste 0 -- -- 79
2019-06-05 09:00:00 7.6 0 Calma 8 Norte 0 -- -- 90
2019-06-05 08:00:00 7.2 3 Noroeste 8 Noroeste 0 -- -- 91
2019-06-05 07:00:00 7.3 0 Calma 6 Sudoeste 0 -- -- 93
2019-06-05 06:00:00 7.9 2 Sudoeste 10 Sudoeste 0.2 -- -- 95
2019-06-05 05:00:00 8 3 Sudoeste 9 Noroeste 1.6 -- -- 94
2019-06-05 04:00:00 8.3 8 Sudeste 12 Sudeste 0 -- -- 94
2019-06-05 03:00:00 8.1 2 Este 16 Este 0.2 -- -- 95
2019-06-05 02:00:00 8.8 10 Sudeste 18 Sudeste 0.8 -- -- 93
2019-06-05 01:00:00 9.8 8 Sudeste 19 Este 0 -- -- 85
2019-06-05 00:00:00 12.5 0 Calma 12 Noroeste 0 -- -- 58
2019-06-04 23:00:00 13.4 5 Noroeste 10 Noroeste 0 -- -- 52
2019-06-04 22:00:00 14.3 9 Noroeste 21 Noroeste 0 -- -- 53
2019-06-04 21:00:00 15.9 10 Noroeste 24 Noroeste 0 -- -- 55
2019-06-04 20:00:00 17 12 Noroeste 37 Noroeste 0 -- -- 52
2019-06-04 19:00:00 18.1 18 Noroeste 39 Oeste 0 -- -- 53
2019-06-04 18:00:00 18.8 23 Noroeste 44 Oeste 0 -- -- 53
2019-06-04 17:00:00 19.8 26 Oeste 45 Oeste 0 -- -- 48
2019-06-04 16:00:00 20.6 24 Oeste 41 Oeste 0 -- -- 47
2019-06-04 15:00:00 19.5 19 Oeste 32 Oeste 0 -- -- 51
2019-06-04 14:00:00 18.7 16 Oeste 30 Oeste 0 -- -- 50
2019-06-04 13:00:00 17.5 12 Sudoeste 26 Sudoeste 0 -- -- 55
2019-06-04 12:00:00 15.4 14 Oeste 30 Oeste 0 -- -- 63
2019-06-04 11:00:00 13.8 18 Oeste 29 Oeste 0 -- -- 69
2019-06-04 10:00:00 12.5 16 Oeste 24 Oeste 0 -- -- 78
2019-06-04 09:00:00 11.4 13 Oeste 24 Oeste 0 -- -- 85
2019-06-04 08:00:00 10.3 11 Oeste 17 Oeste 0 -- -- 93
2019-06-04 07:00:00 9 6 Oeste 14 Noroeste 0 -- -- 92
2019-06-04 06:00:00 9.9 8 Oeste 14 Oeste 0 -- -- 91
2019-06-04 05:00:00 11.4 10 Oeste 18 Oeste 0 -- -- 85
2019-06-04 04:00:00 13.1 15 Oeste 32 Oeste 0 -- -- 77
2019-06-04 03:00:00 14.3 14 Oeste 20 Oeste 0 -- -- 74
2019-06-04 02:00:00 14.3 11 Oeste 17 Oeste 0 -- -- 76
2019-06-04 01:00:00 14.7 6 Oeste 9 Noroeste 0 -- -- 71
2019-06-04 00:00:00 15.6 4 Noroeste 12 Oeste 0 -- -- 64
2019-06-03 23:00:00 17.4 5 Noroeste 14 Noroeste 0 -- -- 56
2019-06-03 22:00:00 20.7 10 Noroeste 31 Oeste 0 -- -- 47
2019-06-03 21:00:00 22.8 18 Oeste 36 Oeste 0 -- -- 42
2019-06-03 20:00:00 24.5 23 Oeste 39 Oeste 0 -- -- 36
2019-06-03 19:00:00 26.2 25 Oeste 41 Oeste 0 -- -- 32
2019-06-03 18:00:00 26.5 22 Oeste 41 Oeste 0 -- -- 34
2019-06-03 17:00:00 25.7 13 Oeste 38 Noroeste 0 -- -- 36
2019-06-03 16:00:00 25.8 17 Oeste 36 Oeste 0 -- -- 37
2019-06-03 15:00:00 25.2 19 Oeste 35 Noroeste 0 -- -- 36
2019-06-03 14:00:00 24.1 15 Oeste 29 Oeste 0 -- -- 38
2019-06-03 13:00:00 23.2 13 Oeste 23 Oeste 0 -- -- 38
2019-06-03 12:00:00 21.4 4 Sudoeste 14 Oeste 0 -- -- 43
2019-06-03 11:00:00 19.5 5 Sur 11 Sur 0 -- -- 50
2019-06-03 10:00:00 16.6 5 Sudeste 10 Sur 0 -- -- 59
2019-06-03 09:00:00 15 5 Este 8 Nordeste 0 -- -- 65
2019-06-03 08:00:00 13.8 5 Nordeste 10 Nordeste 0 -- -- 69
2019-06-03 07:00:00 12.3 8 Nordeste 10 Este 0 -- -- 73
2019-06-03 06:00:00 12 5 Nordeste 9 Este 0 -- -- 73
2019-06-03 05:00:00 12.8 6 Este 13 Nordeste 0 -- -- 71
2019-06-03 04:00:00 13.6 9 Nordeste 12 Nordeste 0 -- -- 64
2019-06-03 03:00:00 14.6 8 Nordeste 10 Nordeste 0 -- -- 58
2019-06-03 02:00:00 15.4 4 Este 7 Este 0 -- -- 56
2019-06-03 01:00:00 16 4 Este 7 Norte 0 -- -- 53
2019-06-03 00:00:00 17.8 5 Norte 11 Noroeste 0 -- -- 46
2019-06-02 23:00:00 18.5 6 Norte 13 Norte 0 -- -- 44
2019-06-02 22:00:00 20.4 6 Noroeste 24 Noroeste 0 -- -- 39
2019-06-02 21:00:00 23.1 14 Noroeste 33 Oeste 0 -- -- 32
2019-06-02 20:00:00 25.2 22 Oeste 37 Oeste 0 -- -- 22
2019-06-02 19:00:00 27 22 Oeste 40 Oeste 0 -- -- 19
2019-06-02 18:00:00 26.6 10 Noroeste 30 Noroeste 0 -- -- 21
2019-06-02 17:00:00 28 17 Oeste 31 Noroeste 0 -- -- 19
2019-06-02 16:00:00 26.9 23 Noroeste 37 Oeste 0 -- -- 19
2019-06-02 15:00:00 27.3 25 Oeste 39 Oeste 0 -- -- 18
2019-06-02 14:00:00 26.6 22 Oeste 60 Oeste 0 -- -- 22
2019-06-02 13:00:00 25.2 13 Oeste 28 Oeste 0 -- -- 34
2019-06-02 12:00:00 24.5 13 Oeste 21 Oeste 0 -- -- 37
2019-06-02 11:00:00 22.4 7 Sudeste 13 Sudeste 0 -- -- 45
2019-06-02 10:00:00 19.9 10 Sur 18 Sudeste 0 -- -- 51
2019-06-02 09:00:00 19.6 8 Sudeste 13 Sudeste 0 -- -- 51
2019-06-02 08:00:00 17.1 5 Nordeste 12 Nordeste 0 -- -- 60
2019-06-02 07:00:00 14.4 10 Nordeste 15 Nordeste 0 -- -- 64
2019-06-02 06:00:00 14.5 13 Nordeste 15 Nordeste 0 -- -- 63
2019-06-02 05:00:00 15.6 12 Nordeste 14 Este 0 -- -- 60
2019-06-02 04:00:00 16.7 12 Nordeste 14 Nordeste 0 -- -- 55
2019-06-02 03:00:00 18.1 10 Nordeste 15 Norte 0 -- -- 52
2019-06-02 02:00:00 17.9 11 Nordeste 13 Nordeste 0 -- -- 51
2019-06-02 01:00:00 16.9 0 Calma 9 Este 0 -- -- 53
2019-06-02 00:00:00 18.9 6 Este 15 Sur 0 -- -- 46
2019-06-01 23:00:00 18.9 8 Este 12 Oeste 0 -- -- 45
2019-06-01 22:00:00 20.6 2 Sur 4 Sur 0 -- -- 45
2019-06-01 21:00:00 27.3 3 Sur 8 Sur 0 -- -- 29
2019-06-01 20:00:00 29.3 3 Norte 18 Sudoeste 0 -- -- 22
2019-06-01 19:00:00 29.6 12 Oeste 32 Oeste 0 -- -- 22
2019-06-01 18:00:00 29.7 14 Oeste 31 Oeste 0 -- -- 22
2019-06-01 17:00:00 29.8 15 Oeste 30 Oeste 0 -- -- 23
2019-06-01 16:00:00 29.1 15 Oeste 33 Oeste 0 -- -- 23
2019-06-01 15:00:00 28.5 8 Oeste 33 Oeste 0 -- -- 24
2019-06-01 14:00:00 28.3 12 Noroeste 26 Noroeste 0 -- -- 23
2019-06-01 13:00:00 27.6 9 Oeste 23 Sudoeste 0 -- -- 27
2019-06-01 12:00:00 26.3 8 Sur 12 Sur 0 -- -- 30
2019-06-01 11:00:00 24 5 Este 10 Este 0 -- -- 34
2019-06-01 10:00:00 21.7 6 Sudeste 13 Sudeste 0 -- -- 38
2019-06-01 09:00:00 19.5 6 Este 12 Nordeste 0 -- -- 49
2019-06-01 08:00:00 15.9 11 Nordeste 13 Nordeste 0 -- -- 57
2019-06-01 07:00:00 14.3 11 Nordeste 15 Nordeste 0 -- -- 59
2019-06-01 06:00:00 13.9 12 Nordeste 15 Nordeste 0 -- -- 61
2019-06-01 05:00:00 14.3 13 Nordeste 15 Nordeste 0 -- -- 60
2019-06-01 04:00:00 14.5 14 Nordeste 16 Nordeste 0 -- -- 58
2019-06-01 03:00:00 15.5 14 Nordeste 15 Nordeste 0 -- -- 53
2019-06-01 02:00:00 15.9 13 Nordeste 15 Nordeste 0 -- -- 52
2019-06-01 01:00:00 15.5 9 Nordeste 12 Nordeste 0 -- -- 50
2019-06-01 00:00:00 16.2 9 Este 12 Este 0 -- -- 46
2019-05-31 23:00:00 17.6 9 Nordeste 14 Este 0 -- -- 42
2019-05-31 22:00:00 20.8 8 Este 21 Este 0 -- -- 38
2019-05-31 21:00:00 26.9 5 Sur 13 Sur 0 -- -- 27
2019-05-31 20:00:00 27.9 9 Sur 17 Sur 0 -- -- 23
2019-05-31 19:00:00 28.1 5 Este 18 Sudeste 0 -- -- 24
2019-05-31 18:00:00 28.1 13 Sur 23 Sudeste 0 -- -- 23
2019-05-31 17:00:00 28.1 8 Noroeste 22 Sudeste 0 -- -- 23
2019-05-31 16:00:00 27.2 6 Sur 26 Sudeste 0 -- -- 24
2019-05-31 15:00:00 26.5 8 Sudeste 21 Sudeste 0 -- -- 27
2019-05-31 14:00:00 25.3 6 Sur 18 Sudeste 0 -- -- 32
2019-05-31 13:00:00 24.9 8 Sur 16 Sudeste 0 -- -- 28
2019-05-31 12:00:00 23.6 7 Sudeste 17 Sudeste 0 -- -- 32
2019-05-31 11:00:00 22.6 5 Sudeste 11 Este 0 -- -- 32
2019-05-31 10:00:00 20.5 3 Sur 6 Sur 0 -- -- 39
2019-05-31 09:00:00 17.2 3 Sudeste 12 Nordeste 0 -- -- 59
2019-05-31 08:00:00 12.9 11 Nordeste 14 Nordeste 0 -- -- 60
2019-05-31 07:00:00 11.9 9 Nordeste 14 Nordeste 0 -- -- 59
2019-05-31 06:00:00 12.2 12 Nordeste 15 Nordeste 0 -- -- 65
2019-05-31 05:00:00 11.7 14 Nordeste 16 Nordeste 0 -- -- 72
2019-05-31 04:00:00 10.6 5 Nordeste 10 Nordeste 0 -- -- 81
2019-05-31 03:00:00 11.8 6 Nordeste 13 Este 0 -- -- 77
2019-05-31 02:00:00 13.9 8 Sudeste 17 Este 0 -- -- 71
2019-05-31 01:00:00 15.2 11 Este 20 Este 0 -- -- 67
2019-05-31 00:00:00 17.3 15 Este 25 Este 0 -- -- 57
2019-05-30 23:00:00 17.8 13 Este 24 Este 0 -- -- 55
2019-05-30 22:00:00 19.5 15 Este 31 Este 0 -- -- 51
2019-05-30 21:00:00 22.1 19 Sudeste 33 Sudeste 0 -- -- 45
2019-05-30 20:00:00 24.7 15 Este 25 Sudeste 0 -- -- 38
2019-05-30 19:00:00 26 13 Este 26 Este 0 -- -- 33
2019-05-30 18:00:00 25.5 9 Este 20 Nordeste 0 -- -- 33
2019-05-30 17:00:00 26.1 12 Este 22 Sudeste 0 -- -- 33
2019-05-30 16:00:00 25.4 10 Sudeste 22 Sudeste 0 -- -- 33
2019-05-30 15:00:00 24.6 9 Este 21 Sudeste 0 -- -- 36
2019-05-30 14:00:00 23.1 8 Este 16 Sudeste 0 -- -- 37
2019-05-30 13:00:00 21.7 8 Este 15 Este 0 -- -- 39
2019-05-30 12:00:00 19.9 7 Sur 13 Sudeste 0 -- -- 44
2019-05-30 11:00:00 17.8 3 Este 11 Oeste 0 -- -- 57
2019-05-30 10:00:00 15.5 6 Oeste 11 Oeste 0 -- -- 63
2019-05-30 09:00:00 13.3 3 Nordeste 9 Nordeste 0 -- -- 72
2019-05-30 08:00:00 10.1 7 Nordeste 12 Nordeste 0 -- -- 80
2019-05-30 07:00:00 8.4 9 Nordeste 15 Nordeste 0 -- -- 85
2019-05-30 06:00:00 7.7 10 Nordeste 12 Nordeste 0 -- -- 90
2019-05-30 05:00:00 7.7 8 Nordeste 11 Nordeste 0 -- -- 90
2019-05-30 04:00:00 7.6 6 Nordeste 10 Nordeste 0 -- -- 90
2019-05-30 03:00:00 7.4 0 Calma 8 Sur 0 -- -- 85
2019-05-30 02:00:00 8.2 6 Sur 8 Sur 0 -- -- 86
2019-05-30 01:00:00 8.7 0 Calma 8 Sudeste 0 -- -- 79
2019-05-30 00:00:00 11.7 6 Sudeste 9 Sudeste 0 -- -- 69
2019-05-29 23:00:00 13.1 5 Sudeste 20 Sudeste 0 -- -- 65
2019-05-29 22:00:00 15 12 Sudeste 22 Sudeste 0 -- -- 60
2019-05-29 21:00:00 17.7 17 Sudeste 28 Este 0 -- -- 53
2019-05-29 20:00:00 19.5 14 Sudeste 28 Sudeste 0 -- -- 49
2019-05-29 19:00:00 20.6 17 Sudeste 25 Sudeste 0 -- -- 45
2019-05-29 18:00:00 20.5 15 Sudeste 24 Sudeste 0 -- -- 46
2019-05-29 17:00:00 21.1 9 Sur 24 Sur 0 -- -- 43
2019-05-29 16:00:00 20.1 9 Sudeste 26 Sudeste 0 -- -- 45
2019-05-29 15:00:00 18.8 9 Sudeste 19 Este 0 -- -- 47
2019-05-29 14:00:00 17.3 8 Sur 19 Sur 0 -- -- 48
2019-05-29 13:00:00 16 10 Sur 19 Sur 0 -- -- 53
2019-05-29 12:00:00 14.6 5 Sur 15 Sur 0 -- -- 55
2019-05-29 11:00:00 12.3 3 Oeste 14 Noroeste 0 -- -- 62
2019-05-29 10:00:00 10.7 5 Sudoeste 12 Oeste 0 -- -- 67
2019-05-29 09:00:00 8.9 5 Noroeste 10 Noroeste 0 -- -- 72
2019-05-29 08:00:00 4.6 0 Calma -- -- 0 -- -- 93
2019-05-29 07:00:00 0.8 0 Calma -- -- 0 -- -- 93
2019-05-29 06:00:00 0.8 0 Calma 4 Norte 0 -- -- 92
2019-05-29 05:00:00 1.4 4 Noroeste 8 Noroeste 0 -- -- 92
2019-05-29 04:00:00 1.9 0 Calma 6 Oeste 0 -- -- 89
2019-05-29 03:00:00 2.5 3 Noroeste 8 Noroeste 0 -- -- 90
2019-05-29 02:00:00 4.7 4 Norte 8 Norte 0 -- -- 85
2019-05-29 01:00:00 6.2 0 Calma 7 Este 0 -- -- 78
2019-05-29 00:00:00 7.8 5 Nordeste 15 Nordeste 0 -- -- 71
2019-05-28 23:00:00 8.8 0 Calma 14 Nordeste 0 -- -- 69
2019-05-28 22:00:00 10.5 8 Nordeste 19 Norte 0 -- -- 61
2019-05-28 21:00:00 13.3 9 Norte 25 Nordeste 0 -- -- 50
2019-05-28 20:00:00 15.5 13 Norte 26 Norte 0 -- -- 44
2019-05-28 19:00:00 17.6 13 Nordeste 30 Norte 0 -- -- 40
2019-05-28 18:00:00 18.4 12 Norte 24 Norte 0 -- -- 38
2019-05-28 17:00:00 18.4 14 Noroeste 30 Nordeste 0 -- -- 38
2019-05-28 16:00:00 18 16 Norte 39 Nordeste 0 -- -- 32
2019-05-28 15:00:00 17.6 11 Norte 24 Nordeste 0 -- -- 34
2019-05-28 14:00:00 16.8 10 Nordeste 24 Nordeste 0 -- -- 39
2019-05-28 13:00:00 15.8 8 Nordeste 31 Noroeste 0 -- -- 44
2019-05-28 12:00:00 13.6 10 Sudeste 18 Sur 0 -- -- 57
2019-05-28 11:00:00 11.4 4 Sudeste 11 Sudeste 0 -- -- 61
2019-05-28 10:00:00 9.5 4 Sudeste 10 Sudeste 0 -- -- 70
2019-05-28 09:00:00 8.1 4 Sur 6 Sur 0 -- -- 79
2019-05-28 08:00:00 3.2 0 Calma -- -- 0 -- -- 95
2019-05-28 07:00:00 2.4 0 Calma 6 Noroeste 0 -- -- 97
2019-05-28 06:00:00 1.9 0 Calma -- -- 0 -- -- 94
2019-05-28 05:00:00 2.2 0 Calma -- -- 0 -- -- 94
2019-05-28 04:00:00 3 0 Calma -- -- 0 -- -- 91
2019-05-28 03:00:00 3.5 0 Calma -- -- 0 -- -- 89
2019-05-28 02:00:00 4.7 0 Calma -- -- 0 -- -- 92
2019-05-28 01:00:00 5.9 0 Calma 8 Sudeste 0 -- -- 88
2019-05-28 00:00:00 8.3 4 Sudeste 11 Sudeste 0 -- -- 88
2019-05-27 23:00:00 10 0 Calma 7 Sudeste 0 -- -- 80
2019-05-27 22:00:00 12.5 3 Sudeste 14 Sudeste 0 -- -- 74
2019-05-27 21:00:00 15.6 13 Nordeste 24 Nordeste 0 -- -- 62
2019-05-27 20:00:00 18.4 15 Este 24 Nordeste 0 -- -- 44
2019-05-27 19:00:00 19.4 17 Sudeste 27 Sudeste 0 -- -- 57
2019-05-27 18:00:00 21.5 11 Norte 30 Noroeste 0 -- -- 39
2019-05-27 17:00:00 21.7 12 Norte 26 Norte 0 -- -- 40
2019-05-27 16:00:00 21.2 14 Nordeste 34 Noroeste 0 -- -- 41
2019-05-27 15:00:00 20.1 9 Este 21 Nordeste 0 -- -- 45
2019-05-27 14:00:00 18.9 6 Sudeste 17 Sur 0 -- -- 54
2019-05-27 13:00:00 18.9 6 Sur 18 Norte 0 -- -- 58
2019-05-27 12:00:00 17.5 9 Oeste 18 Oeste 0 -- -- 60
2019-05-27 11:00:00 15.4 7 Sudoeste 14 Sudeste 0 -- -- 68
2019-05-27 10:00:00 12.9 6 Sudeste 14 Sur 0 -- -- 73
2019-05-27 09:00:00 10.7 6 Sur 10 Sudeste 0 -- -- 81
2019-05-27 08:00:00 7.4 0 Calma -- -- 0 -- -- 97
2019-05-27 07:00:00 5.6 0 Calma 8 Nordeste 0 -- -- 96
2019-05-27 06:00:00 4.9 0 Calma -- -- 0 -- -- 94
2019-05-27 05:00:00 6.1 0 Calma -- -- 0 -- -- 96
2019-05-27 04:00:00 6.7 0 Calma -- -- 0 -- -- 90
2019-05-27 03:00:00 7 0 Calma -- -- 0 -- -- 92
2019-05-27 02:00:00 7.4 0 Calma -- -- 0 -- -- 89
2019-05-27 01:00:00 8.9 0 Calma 6 Este 0 -- -- 89
2019-05-27 00:00:00 10.2 0 Calma 8 Sur 0 -- -- 83
2019-05-26 23:00:00 13 4 Sudeste 9 Sudeste 0 -- -- 75
2019-05-26 22:00:00 15.3 4 Sudeste 17 Sudeste 0 -- -- 68
2019-05-26 21:00:00 18.7 11 Sudeste 22 Sudeste 0 -- -- 58
2019-05-26 20:00:00 21.2 15 Sudeste 26 Sudeste 0 -- -- 50
2019-05-26 19:00:00 21.6 11 Sur 25 Sudeste 0 -- -- 48
2019-05-26 18:00:00 22.6 17 Sudeste 27 Sudeste 0 -- -- 44
2019-05-26 17:00:00 22.7 9 Sudeste 23 Sur 0 -- -- 45
2019-05-26 16:00:00 21.7 9 Sur 18 Sur 0 -- -- 46
2019-05-26 15:00:00 20.1 8 Sudeste 20 Sudoeste 0 -- -- 48
2019-05-26 14:00:00 18.6 6 Sur 17 Sudeste 0 -- -- 52
2019-05-26 13:00:00 17.3 4 Sudoeste 14 Noroeste 0 -- -- 56
2019-05-26 12:00:00 14.8 9 Oeste 22 Noroeste 0 -- -- 61
2019-05-26 11:00:00 12.9 8 Oeste 17 Oeste 0 -- -- 67
2019-05-26 10:00:00 11.1 7 Noroeste 14 Oeste 0 -- -- 74
2019-05-26 09:00:00 10.1 0 Calma 5 Este 0 -- -- 81
2019-05-26 08:00:00 5.1 0 Calma 2 Nordeste 0 -- -- 92
2019-05-26 07:00:00 2.4 0 Calma -- -- 0 -- -- 93
2019-05-26 06:00:00 3.6 0 Calma 7 Este 0 -- -- 92
2019-05-26 05:00:00 4.7 5 Este 9 Sudeste 0 -- -- 93
2019-05-26 04:00:00 5.5 0 Calma -- -- 0 -- -- 92
2019-05-26 03:00:00 6 0 Calma -- -- 0 -- -- 90
2019-05-26 02:00:00 6.1 0 Calma 6 Sudeste 0 -- -- 87
2019-05-26 01:00:00 7.2 0 Calma 10 Este 0 -- -- 85
2019-05-26 00:00:00 7.8 0 Calma 10 Sudeste 0 -- -- 79